createdAt,value
2022-08-20T00:01:21.972Z,6.15
2022-08-20T00:03:27.868Z,5.72
2022-08-20T00:05:56.666Z,7.45
2022-08-20T00:08:00.611Z,5.75
2022-08-20T00:10:03.233Z,5.38
2022-08-20T00:12:07.083Z,6.45
2022-08-20T00:14:14.601Z,5.78
2022-08-20T00:16:18.407Z,7.93
2022-08-20T00:18:22.345Z,5.38
2022-08-20T00:20:27.058Z,8.27
2022-08-20T00:22:29.717Z,7.75
2022-08-20T00:24:33.176Z,6.32
2022-08-20T00:26:35.255Z,6.20
2022-08-20T00:28:39.553Z,6.80
2022-08-20T00:30:45.502Z,7.20
2022-08-20T00:32:55.641Z,7.13
2022-08-20T00:34:57.932Z,6.15
2022-08-20T00:37:00.066Z,6.70
2022-08-20T00:39:02.493Z,9.38
2022-08-20T00:41:06.075Z,7.18
2022-08-20T00:43:44.072Z,10.27
2022-08-20T00:45:46.979Z,7.45
2022-08-20T00:47:51.312Z,6.30
2022-08-20T00:49:53.876Z,8.15
2022-08-20T00:51:59.181Z,6.22
2022-08-20T00:54:14.409Z,6.63
2022-08-20T00:56:19.759Z,6.30
2022-08-20T00:58:22.527Z,6.63
2022-08-20T01:00:32.711Z,7.15
2022-08-20T01:02:35.092Z,6.63
2022-08-20T01:04:37.721Z,6.57
2022-08-20T01:06:40.506Z,8.00
2022-08-20T01:08:43.407Z,7.63
2022-08-20T01:10:49.780Z,7.20
2022-08-20T01:12:55.656Z,7.22
2022-08-20T01:15:04.643Z,8.20
2022-08-20T01:17:08.519Z,6.03
2022-08-20T01:19:30.028Z,8.40
2022-08-20T01:21:34.516Z,7.03
2022-08-20T01:23:59.366Z,6.15
2022-08-20T01:26:13.824Z,6.10
2022-08-20T01:28:19.840Z,6.38
2022-08-20T01:30:25.958Z,5.80
2022-08-20T01:32:28.119Z,7.22
2022-08-20T01:34:39.274Z,7.15
2022-08-20T01:36:48.492Z,7.38
2022-08-20T01:38:54.931Z,6.63
2022-08-20T01:41:38.710Z,8.10
2022-08-20T01:43:46.360Z,6.57
2022-08-20T01:45:53.163Z,5.88
2022-08-20T01:47:55.421Z,7.53
2022-08-20T01:50:06.098Z,10.40
2022-08-20T01:52:09.354Z,6.40
2022-08-20T01:54:12.065Z,8.85
2022-08-20T01:56:17.998Z,6.20
2022-08-20T01:58:20.523Z,8.02
2022-08-20T02:00:24.071Z,7.63
2022-08-20T02:02:26.729Z,6.72
2022-08-20T02:04:31.645Z,5.68
2022-08-20T02:06:42.353Z,6.18
2022-08-20T02:09:01.452Z,6.22
2022-08-20T02:11:11.575Z,6.80
2022-08-20T02:13:17.361Z,5.82
2022-08-20T02:15:19.919Z,5.85
2022-08-20T02:17:38.136Z,9.93
2022-08-20T02:19:57.812Z,8.27
2022-08-20T02:22:04.616Z,9.25
2022-08-20T02:24:09.812Z,6.45
2022-08-20T02:26:12.967Z,10.40
2022-08-20T02:28:17.249Z,6.72
2022-08-20T02:30:28.603Z,6.47
2022-08-20T02:32:34.110Z,8.27
2022-08-20T02:34:36.776Z,6.32
2022-08-20T02:36:40.071Z,5.60
2022-08-20T02:38:42.864Z,6.10
2022-08-20T02:40:46.660Z,5.85
2022-08-20T02:42:48.756Z,6.90
2022-08-20T02:44:50.883Z,6.10
2022-08-20T02:46:53.273Z,6.10
2022-08-20T02:48:56.429Z,7.25
2022-08-20T02:51:02.666Z,8.35
2022-08-20T02:53:04.839Z,6.68
2022-08-20T02:55:07.699Z,8.95
2022-08-20T02:57:14.977Z,6.72
2022-08-20T02:59:19.749Z,7.65
2022-08-20T03:01:22.889Z,6.22
2022-08-20T03:03:25.616Z,7.63
2022-08-20T03:05:28.197Z,5.65
2022-08-20T03:07:30.677Z,8.27
2022-08-20T03:09:33.443Z,6.10
2022-08-20T03:11:36.005Z,7.22
2022-08-20T03:13:38.559Z,6.55
2022-08-20T03:15:44.634Z,6.72
2022-08-20T03:17:47.179Z,8.40
2022-08-20T03:19:49.245Z,8.50
2022-08-20T03:21:51.492Z,8.38
2022-08-20T03:23:53.936Z,8.23
2022-08-20T03:25:56.631Z,8.57
2022-08-20T03:27:59.378Z,10.18
2022-08-20T03:30:01.769Z,8.45
2022-08-20T03:32:07.678Z,6.82
2022-08-20T03:34:11.758Z,9.40
2022-08-20T03:36:14.269Z,11.95
2022-08-20T03:38:32.330Z,10.77
2022-08-20T03:40:35.995Z,10.35
2022-08-20T03:42:39.987Z,12.57
2022-08-20T03:44:42.133Z,5.85
2022-08-20T03:46:46.566Z,8.70
2022-08-20T03:48:48.787Z,7.40
2022-08-20T03:50:53.476Z,6.53
2022-08-20T03:52:58.835Z,8.18
2022-08-20T03:55:00.968Z,7.15
2022-08-20T03:57:12.741Z,6.80
2022-08-20T03:59:15.343Z,8.30
2022-08-20T04:01:44.843Z,9.27
2022-08-20T04:03:42.983Z,7.72
2022-08-20T04:05:45.399Z,9.90
2022-08-20T04:07:47.860Z,10.77
2022-08-20T04:09:50.147Z,109.28
2022-08-20T04:12:02.212Z,196.68
2022-08-20T04:14:04.899Z,304.95
2022-08-20T04:16:11.264Z,163.25
2022-08-20T04:18:20.655Z,90.45
2022-08-20T04:20:26.176Z,101.10
2022-08-20T04:22:28.232Z,156.93
2022-08-20T04:24:32.423Z,190.05
2022-08-20T04:26:36.456Z,97.35
2022-08-20T04:28:38.724Z,70.78
2022-08-20T04:30:44.637Z,181.40
2022-08-20T04:32:54.570Z,208.65
2022-08-20T04:34:58.805Z,72.40
2022-08-20T04:37:01.165Z,29.88
2022-08-20T04:39:03.398Z,17.02
2022-08-20T04:41:05.806Z,12.27
2022-08-20T04:43:08.149Z,9.70
2022-08-20T04:45:15.216Z,7.55
2022-08-20T04:47:23.942Z,8.48
2022-08-20T04:49:39.078Z,9.57
2022-08-20T04:51:46.298Z,7.22
2022-08-20T04:53:53.339Z,6.50
2022-08-20T04:55:59.679Z,9.20
2022-08-20T04:58:14.812Z,12.23
2022-08-20T05:00:17.552Z,13.27
2022-08-20T05:02:21.648Z,19.98
2022-08-20T05:04:27.965Z,16.17
2022-08-20T05:06:32.566Z,7.43
2022-08-20T05:08:36.248Z,12.48
2022-08-20T05:10:40.448Z,14.75
2022-08-20T05:12:44.081Z,14.32
2022-08-20T05:14:58.965Z,12.55
2022-08-20T05:17:07.158Z,11.65
2022-08-20T05:19:13.356Z,7.47
2022-08-20T05:21:15.729Z,7.53
2022-08-20T05:23:20.107Z,8.75
2022-08-20T05:25:22.521Z,8.77
2022-08-20T05:27:27.338Z,6.95
2022-08-20T05:29:29.786Z,8.60
2022-08-20T05:31:33.567Z,6.53
2022-08-20T05:33:39.869Z,6.20
2022-08-20T05:35:42.087Z,10.38
2022-08-20T05:37:45.344Z,8.40
2022-08-20T05:39:47.649Z,8.18
2022-08-20T05:41:51.111Z,6.80
2022-08-20T05:43:53.315Z,8.73
2022-08-20T05:45:58.671Z,5.85
2022-08-20T05:48:13.052Z,8.55
2022-08-20T05:50:23.243Z,7.90
2022-08-20T05:52:25.941Z,7.60
2022-08-20T05:54:28.243Z,6.75
2022-08-20T05:56:31.239Z,7.18
2022-08-20T05:58:33.789Z,8.85
2022-08-20T06:00:37.485Z,6.65
2022-08-20T06:02:59.168Z,7.38
2022-08-20T06:05:01.687Z,6.22
2022-08-20T06:07:06.865Z,6.22
2022-08-20T06:09:09.354Z,6.72
2022-08-20T06:11:16.256Z,6.35
2022-08-20T06:13:18.473Z,7.82
2022-08-20T06:15:21.119Z,7.28
2022-08-20T06:17:26.025Z,10.68
2022-08-20T06:19:38.753Z,6.97
2022-08-20T06:21:41.606Z,7.07
2022-08-20T06:23:57.504Z,6.20
2022-08-20T06:26:06.749Z,12.32
2022-08-20T06:28:13.439Z,7.57
2022-08-20T06:30:17.345Z,7.78
2022-08-20T06:32:32.053Z,7.03
2022-08-20T06:34:35.177Z,6.32
2022-08-20T06:36:37.364Z,6.57
2022-08-20T06:38:39.379Z,7.00
2022-08-20T06:40:41.771Z,6.30
2022-08-20T06:42:48.138Z,6.68
2022-08-20T06:44:51.451Z,6.28
2022-08-20T06:47:00.496Z,6.60
2022-08-20T06:49:05.399Z,7.07
2022-08-20T06:51:07.770Z,7.82
2022-08-20T06:53:15.070Z,8.70
2022-08-20T06:55:20.733Z,7.80
2022-08-20T06:57:26.181Z,6.85
2022-08-20T06:59:28.332Z,6.78
2022-08-20T07:01:30.679Z,7.35
2022-08-20T07:03:32.962Z,8.20
2022-08-20T07:05:43.526Z,7.40
2022-08-20T07:07:51.152Z,7.50
2022-08-20T07:10:03.460Z,8.18
2022-08-20T07:12:06.408Z,6.72
2022-08-20T07:14:08.814Z,7.28
2022-08-20T07:16:10.706Z,10.02
2022-08-20T07:18:14.346Z,6.78
2022-08-20T07:20:16.770Z,6.38
2022-08-20T07:22:18.733Z,6.97
2022-08-20T07:24:20.593Z,6.10
2022-08-20T07:26:23.279Z,6.45
2022-08-20T07:28:31.971Z,9.05
2022-08-20T07:30:56.181Z,5.95
2022-08-20T07:32:59.934Z,7.97
2022-08-20T07:35:02.057Z,6.03
2022-08-20T07:37:04.121Z,6.07
2022-08-20T07:39:06.796Z,9.48
2022-08-20T07:41:13.234Z,7.45
2022-08-20T07:43:16.372Z,7.35
2022-08-20T07:45:20.989Z,6.75
2022-08-20T07:47:23.324Z,10.57
2022-08-20T07:49:25.672Z,7.93
2022-08-20T07:51:27.751Z,8.43
2022-08-20T07:53:35.192Z,7.05
2022-08-20T07:55:37.829Z,12.68
2022-08-20T07:57:39.720Z,7.07
2022-08-20T07:59:41.464Z,7.90
2022-08-20T08:01:43.333Z,6.97
2022-08-20T08:03:49.593Z,7.07
2022-08-20T08:05:52.484Z,6.57
2022-08-20T08:07:54.448Z,6.90
2022-08-20T08:09:57.571Z,6.30
2022-08-20T08:12:03.034Z,7.25
2022-08-20T08:14:08.337Z,7.13
2022-08-20T08:16:11.005Z,8.00
2022-08-20T08:18:21.832Z,6.75
2022-08-20T08:20:23.988Z,6.88
2022-08-20T08:22:26.275Z,6.60
2022-08-20T08:24:28.721Z,6.45
2022-08-20T08:26:30.723Z,6.53
2022-08-20T08:28:32.571Z,6.28
2022-08-20T08:30:34.401Z,7.10
2022-08-20T08:32:58.209Z,6.25
2022-08-20T08:35:05.127Z,8.07
2022-08-20T08:37:06.929Z,10.48
2022-08-20T08:39:08.777Z,8.65
2022-08-20T08:41:23.248Z,5.68
2022-08-20T08:43:27.887Z,5.60
2022-08-20T08:45:45.828Z,7.88
2022-08-20T08:47:48.218Z,7.35
2022-08-20T08:49:50.186Z,6.10
2022-08-20T08:51:57.171Z,5.35
2022-08-20T08:54:04.636Z,6.70
2022-08-20T08:56:09.950Z,5.75
2022-08-20T08:58:17.236Z,7.47
2022-08-20T09:00:21.861Z,6.10
2022-08-20T09:02:26.298Z,8.43
2022-08-20T09:04:37.250Z,6.25
2022-08-20T09:06:40.464Z,6.43
2022-08-20T09:08:51.184Z,6.15
2022-08-20T09:10:53.396Z,10.95
2022-08-20T09:12:55.356Z,5.85
2022-08-20T09:14:57.595Z,6.35
2022-08-20T09:16:59.455Z,8.48
2022-08-20T09:19:01.209Z,6.95
2022-08-20T09:21:03.166Z,5.60
2022-08-20T09:23:08.073Z,6.22
2022-08-20T09:25:10.563Z,11.95
2022-08-20T09:27:12.994Z,7.40
2022-08-20T09:29:15.160Z,8.60
2022-08-20T09:31:18.308Z,6.57
2022-08-20T09:33:20.433Z,8.90
2022-08-20T09:35:22.301Z,6.50
2022-08-20T09:37:26.138Z,6.07
2022-08-20T09:39:27.984Z,8.73
2022-08-20T09:41:30.809Z,11.32
2022-08-20T09:43:32.818Z,5.50
2022-08-20T09:45:36.200Z,8.48
2022-08-20T09:47:39.836Z,7.38
2022-08-20T09:49:57.207Z,5.50
2022-08-20T09:52:01.514Z,7.50
2022-08-20T09:54:03.428Z,8.20
2022-08-20T09:56:05.423Z,10.50
2022-08-20T09:58:11.398Z,12.98
2022-08-20T10:00:14.119Z,9.90
2022-08-20T10:02:16.219Z,6.70
2022-08-20T10:04:18.057Z,16.50
2022-08-20T10:06:20.779Z,7.47
2022-08-20T10:08:22.771Z,8.98
2022-08-20T10:10:24.992Z,7.47
2022-08-20T10:12:27.148Z,10.25
2022-08-20T10:14:29.000Z,9.98
2022-08-20T10:16:31.443Z,9.98
2022-08-20T10:18:35.025Z,8.48
2022-08-20T10:20:37.240Z,9.98
2022-08-20T10:22:39.057Z,9.27
2022-08-20T10:24:40.924Z,10.05
2022-08-20T10:26:42.747Z,6.75
2022-08-20T10:28:44.907Z,7.57
2022-08-20T10:30:47.125Z,9.80
2022-08-20T10:32:49.125Z,7.63
2022-08-20T10:34:50.939Z,15.07
2022-08-20T10:36:52.865Z,7.05
2022-08-20T10:38:54.819Z,11.63
2022-08-20T10:40:57.143Z,13.02
2022-08-20T10:42:59.073Z,12.13
2022-08-20T10:45:00.864Z,7.93
2022-08-20T10:47:16.421Z,10.85
2022-08-20T10:49:18.233Z,9.88
2022-08-20T10:51:20.057Z,14.38
2022-08-20T10:53:21.901Z,12.65
2022-08-20T10:55:23.716Z,12.25
2022-08-20T10:57:28.267Z,9.15
2022-08-20T10:59:31.000Z,13.43
2022-08-20T11:01:36.190Z,9.10
2022-08-20T11:03:38.655Z,8.90
2022-08-20T11:05:40.471Z,8.18
2022-08-20T11:07:50.624Z,7.22
2022-08-20T11:09:58.665Z,10.73
2022-08-20T11:12:00.538Z,10.43
2022-08-20T11:14:02.250Z,7.10
2022-08-20T11:16:05.194Z,9.77
2022-08-20T11:18:08.028Z,9.20
2022-08-20T11:20:13.358Z,7.20
2022-08-20T11:22:15.910Z,11.52
2022-08-20T11:24:19.008Z,15.07
2022-08-20T11:26:25.177Z,22.20
2022-08-20T11:28:31.320Z,22.63
2022-08-20T11:30:36.547Z,22.27
2022-08-20T11:32:38.531Z,16.00
2022-08-20T11:34:40.434Z,21.63
2022-08-20T11:36:42.603Z,10.07
2022-08-20T11:38:44.539Z,18.30
2022-08-20T11:40:47.231Z,15.13
2022-08-20T11:43:12.954Z,18.17
2022-08-20T11:45:11.187Z,15.98
2022-08-20T11:47:26.129Z,12.23
2022-08-20T11:49:27.990Z,15.43
2022-08-20T11:51:30.205Z,13.77
2022-08-20T11:53:38.061Z,10.48
2022-08-20T11:55:42.130Z,13.20
2022-08-20T11:57:47.444Z,15.32
2022-08-20T11:59:51.560Z,14.77
2022-08-20T12:02:02.804Z,9.68
2022-08-20T12:04:05.333Z,11.45
2022-08-20T12:06:07.743Z,10.75
2022-08-20T12:08:10.295Z,12.52
2022-08-20T12:10:29.231Z,10.18
2022-08-20T12:12:31.151Z,12.00
2022-08-20T12:14:33.409Z,7.10
2022-08-20T12:16:35.608Z,7.40
2022-08-20T12:18:38.366Z,10.15
2022-08-20T12:20:42.521Z,12.07
2022-08-20T12:22:45.450Z,8.38
2022-08-20T12:24:48.054Z,11.77
2022-08-20T12:26:53.210Z,9.48
2022-08-20T12:28:56.109Z,10.93
2022-08-20T12:31:02.755Z,9.77
2022-08-20T12:33:05.275Z,15.23
2022-08-20T12:35:10.539Z,11.35
2022-08-20T12:37:16.350Z,16.63
2022-08-20T12:39:18.622Z,7.85
2022-08-20T12:41:20.755Z,8.02
2022-08-20T12:43:24.998Z,12.07
2022-08-20T12:45:28.127Z,11.25
2022-08-20T12:47:32.902Z,8.30
2022-08-20T12:49:35.525Z,11.48
2022-08-20T12:51:38.044Z,7.38
2022-08-20T12:53:40.746Z,6.55
2022-08-20T12:55:42.926Z,11.38
2022-08-20T12:57:53.986Z,12.43
2022-08-20T13:00:01.891Z,6.55
2022-08-20T13:02:14.117Z,6.70
2022-08-20T13:04:21.258Z,8.73
2022-08-20T13:06:23.588Z,11.75
2022-08-20T13:08:26.270Z,5.03
2022-08-20T13:10:36.897Z,8.57
2022-08-20T13:12:39.196Z,5.35
2022-08-20T13:14:41.955Z,6.15
2022-08-20T13:16:44.302Z,7.65
2022-08-20T13:18:47.502Z,5.65
2022-08-20T13:20:49.857Z,13.15
2022-08-20T13:22:52.931Z,6.38
2022-08-20T13:24:55.297Z,6.88
2022-08-20T13:27:12.484Z,5.55
2022-08-20T13:29:15.558Z,6.57
2022-08-20T13:31:18.036Z,5.18
2022-08-20T13:33:21.637Z,5.25
2022-08-20T13:35:26.505Z,5.95
2022-08-20T13:37:29.961Z,5.00
2022-08-20T13:39:31.954Z,5.20
2022-08-20T13:41:34.464Z,5.22
2022-08-20T13:43:36.703Z,3.95
2022-08-20T13:45:40.906Z,5.30
2022-08-20T13:47:43.733Z,8.55
2022-08-20T13:49:46.317Z,4.60
2022-08-20T13:51:48.860Z,4.22
2022-08-20T13:53:54.574Z,5.07
2022-08-20T13:55:59.240Z,5.35
2022-08-20T13:58:05.996Z,5.10
2022-08-20T14:00:12.958Z,6.78
2022-08-20T14:02:16.353Z,6.70
2022-08-20T14:04:18.803Z,5.93
2022-08-20T14:06:20.991Z,6.78
2022-08-20T14:08:24.424Z,5.68
2022-08-20T14:10:31.508Z,3.97
2022-08-20T14:12:33.941Z,5.20
2022-08-20T14:14:36.418Z,3.83
2022-08-20T14:16:39.979Z,5.07
2022-08-20T14:18:42.650Z,6.32
2022-08-20T14:20:46.053Z,5.13
2022-08-20T14:22:48.579Z,5.63
2022-08-20T14:24:51.408Z,6.40
2022-08-20T14:26:53.421Z,4.45
2022-08-20T14:28:55.430Z,6.93
2022-08-20T14:30:57.544Z,5.70
2022-08-20T14:33:02.530Z,6.18
2022-08-20T14:35:05.747Z,3.70
2022-08-20T14:37:25.176Z,5.30
2022-08-20T14:39:27.557Z,6.45
2022-08-20T14:41:30.025Z,9.52
2022-08-20T14:43:32.493Z,4.05
2022-08-20T14:45:34.673Z,6.80
2022-08-20T14:47:43.020Z,8.23
2022-08-20T14:49:46.148Z,6.40
2022-08-20T14:51:48.121Z,7.90
2022-08-20T14:53:50.767Z,10.43
2022-08-20T14:55:52.640Z,12.43
2022-08-20T14:57:54.860Z,9.45
2022-08-20T14:59:56.749Z,7.93
2022-08-20T15:01:59.849Z,9.13
2022-08-20T15:04:01.662Z,9.93
2022-08-20T15:06:03.723Z,7.63
2022-08-20T15:08:10.462Z,5.35
2022-08-20T15:10:19.858Z,11.43
2022-08-20T15:12:23.011Z,9.73
2022-08-20T15:14:25.490Z,7.85
2022-08-20T15:16:29.507Z,8.73
2022-08-20T15:18:31.999Z,9.65
2022-08-20T15:20:38.161Z,9.10
2022-08-20T15:22:41.725Z,27.58
2022-08-20T15:24:45.837Z,10.77
2022-08-20T15:26:48.186Z,8.73
2022-08-20T15:28:50.128Z,10.32
2022-08-20T15:30:52.084Z,7.30
2022-08-20T15:32:56.133Z,8.80
2022-08-20T15:34:59.591Z,12.73
2022-08-20T15:37:19.789Z,7.40
2022-08-20T15:39:21.567Z,6.20
2022-08-20T15:41:23.475Z,6.38
2022-08-20T15:43:25.362Z,7.32
2022-08-20T15:45:27.846Z,8.52
2022-08-20T15:47:34.213Z,11.52
2022-08-20T15:49:37.449Z,5.97
2022-08-20T15:51:46.728Z,6.82
2022-08-20T15:53:56.879Z,12.77
2022-08-20T15:56:20.685Z,7.55
2022-08-20T15:58:37.903Z,11.15
2022-08-20T16:01:24.893Z,11.18
2022-08-20T16:03:53.969Z,9.85
2022-08-20T16:06:18.083Z,6.65
2022-08-20T16:08:44.551Z,6.90
2022-08-20T16:10:52.054Z,11.15
2022-08-20T16:12:58.086Z,10.40
2022-08-20T16:15:07.827Z,8.30
2022-08-20T16:17:15.266Z,5.55
2022-08-20T16:19:29.452Z,8.13
2022-08-20T16:21:37.590Z,6.72
2022-08-20T16:23:42.719Z,8.70
2022-08-20T16:25:59.084Z,7.78
2022-08-20T16:28:09.902Z,6.72
2022-08-20T16:30:21.452Z,7.45
2022-08-20T16:32:44.649Z,9.48
2022-08-20T16:35:01.488Z,9.18
2022-08-20T16:37:25.317Z,10.27
2022-08-20T16:39:32.324Z,10.07
2022-08-20T16:41:49.722Z,9.10
2022-08-20T16:43:54.852Z,8.68
2022-08-20T16:46:12.239Z,6.28
2022-08-20T16:48:14.143Z,9.48
2022-08-20T16:50:29.216Z,7.90
2022-08-20T16:52:31.565Z,9.30
2022-08-20T16:54:33.455Z,7.38
2022-08-20T16:56:38.899Z,8.40
2022-08-20T16:58:45.427Z,7.22
2022-08-20T17:00:48.173Z,9.23
2022-08-20T17:02:57.856Z,14.80
2022-08-20T17:05:04.734Z,6.30
2022-08-20T17:07:09.877Z,7.55
2022-08-20T17:09:21.480Z,9.02
2022-08-20T17:11:31.961Z,8.85
2022-08-20T17:13:37.155Z,5.65
2022-08-20T17:15:39.930Z,9.57
2022-08-20T17:17:41.693Z,7.97
2022-08-20T17:19:52.039Z,8.40
2022-08-20T17:22:09.281Z,10.65
2022-08-20T17:24:25.417Z,7.40
2022-08-20T17:26:42.046Z,8.85
2022-08-20T17:28:55.634Z,6.68
2022-08-20T17:30:58.237Z,10.35
2022-08-20T17:33:03.582Z,13.10
2022-08-20T17:35:06.127Z,10.48
2022-08-20T17:37:18.280Z,9.85
2022-08-20T17:39:23.244Z,13.35
2022-08-20T17:41:31.697Z,12.10
2022-08-20T17:43:34.819Z,12.98
2022-08-20T17:45:46.585Z,15.85
2022-08-20T17:47:49.058Z,12.57
2022-08-20T17:50:03.380Z,13.65
2022-08-20T17:52:13.092Z,20.33
2022-08-20T17:54:26.045Z,32.47
2022-08-20T17:56:34.627Z,22.13
2022-08-20T17:58:54.191Z,14.90
2022-08-20T18:00:56.455Z,13.38
2022-08-20T18:03:02.107Z,12.68
2022-08-20T18:05:12.246Z,10.10
2022-08-20T18:07:25.413Z,7.88
2022-08-20T18:09:46.538Z,8.88
2022-08-20T18:12:33.705Z,8.98
2022-08-20T18:15:08.720Z,8.35
2022-08-20T18:17:38.742Z,9.25
2022-08-20T18:20:02.102Z,14.10
2022-08-20T18:22:08.619Z,10.80
2022-08-20T18:24:21.958Z,9.02
2022-08-20T18:26:33.068Z,11.15
2022-08-20T18:28:41.347Z,10.32
2022-08-20T18:30:53.341Z,9.45
2022-08-20T18:33:09.037Z,10.20
2022-08-20T18:35:15.919Z,7.93
2022-08-20T18:37:17.637Z,5.88
2022-08-20T18:39:28.530Z,6.85
2022-08-20T18:41:54.704Z,13.38
2022-08-20T18:44:09.051Z,10.00
2022-08-20T18:46:21.882Z,6.80
2022-08-20T18:48:25.110Z,9.07
2022-08-20T18:50:39.334Z,10.15
2022-08-20T18:52:44.815Z,7.90
2022-08-20T18:54:52.253Z,10.50
2022-08-20T18:57:40.657Z,7.65
2022-08-20T18:59:47.523Z,5.10
2022-08-20T19:01:49.638Z,11.63
2022-08-20T19:03:54.609Z,8.02
2022-08-20T19:06:24.861Z,12.77
2022-08-20T19:08:46.174Z,9.07
2022-08-20T19:10:52.420Z,7.65
2022-08-20T19:13:00.095Z,8.38
2022-08-20T19:15:07.126Z,10.85
2022-08-20T19:17:24.080Z,6.97
2022-08-20T19:19:30.775Z,10.27
2022-08-20T19:21:35.746Z,11.52
2022-08-20T19:23:40.913Z,6.35
2022-08-20T19:25:57.069Z,8.15
2022-08-20T19:28:00.982Z,6.25
2022-08-20T19:30:02.975Z,5.57
2022-08-20T19:32:08.562Z,9.18
2022-08-20T19:34:19.603Z,8.77
2022-08-20T19:36:28.452Z,10.25
2022-08-20T19:38:30.806Z,8.05
2022-08-20T19:40:39.204Z,13.88
2022-08-20T19:42:43.181Z,11.13
2022-08-20T19:44:49.973Z,7.60
2022-08-20T19:46:52.278Z,8.20
2022-08-20T19:49:05.764Z,8.05
2022-08-20T19:51:25.881Z,6.72
2022-08-20T19:53:32.607Z,7.32
2022-08-20T19:55:36.638Z,6.97
2022-08-20T19:57:38.569Z,10.25
2022-08-20T19:59:51.379Z,7.75
2022-08-20T20:02:00.293Z,8.43
2022-08-20T20:04:05.249Z,9.40
2022-08-20T20:06:17.331Z,9.20
2022-08-20T20:08:20.803Z,6.47
2022-08-20T20:10:22.602Z,14.00
2022-08-20T20:12:24.843Z,8.73
2022-08-20T20:14:31.841Z,6.47
2022-08-20T20:16:35.208Z,9.45
2022-08-20T20:18:40.796Z,8.48
2022-08-20T20:21:11.846Z,12.23
2022-08-20T20:23:46.866Z,11.50
2022-08-20T20:25:56.734Z,7.43
2022-08-20T20:28:09.167Z,8.52
2022-08-20T20:30:13.145Z,9.30
2022-08-20T20:32:20.784Z,9.40
2022-08-20T20:34:30.302Z,13.27
2022-08-20T20:36:39.372Z,7.55
2022-08-20T20:39:05.783Z,11.27
2022-08-20T20:41:20.646Z,9.38
2022-08-20T20:43:33.055Z,7.20
2022-08-20T20:45:39.286Z,13.10
2022-08-20T20:47:51.412Z,12.10
2022-08-20T20:49:55.227Z,6.53
2022-08-20T20:52:15.179Z,7.22
2022-08-20T20:54:47.132Z,6.60
2022-08-20T20:56:59.035Z,9.05
2022-08-20T20:59:06.254Z,9.55
2022-08-20T21:01:09.062Z,12.00
2022-08-20T21:03:11.494Z,12.63
2022-08-20T21:05:15.905Z,13.73
2022-08-20T21:07:21.854Z,9.52
2022-08-20T21:09:25.858Z,12.60
2022-08-20T21:11:31.621Z,8.55
2022-08-20T21:13:33.998Z,11.82
2022-08-20T21:15:37.605Z,9.80
2022-08-20T21:17:39.848Z,11.40
2022-08-20T21:19:45.147Z,7.32
2022-08-20T21:21:48.079Z,10.20
2022-08-20T21:23:50.435Z,9.73
2022-08-20T21:25:52.846Z,10.35
2022-08-20T21:27:55.761Z,11.02
2022-08-20T21:29:58.054Z,11.43
2022-08-20T21:32:00.751Z,7.47
2022-08-20T21:34:03.162Z,10.63
2022-08-20T21:36:06.086Z,10.77
2022-08-20T21:38:08.827Z,8.65
2022-08-20T21:40:14.361Z,12.05
2022-08-20T21:42:29.052Z,10.30
2022-08-20T21:44:35.295Z,9.32
2022-08-20T21:46:37.365Z,9.40
2022-08-20T21:48:39.811Z,10.20
2022-08-20T21:50:42.625Z,11.20
2022-08-20T21:52:58.068Z,9.60
2022-08-20T21:55:02.685Z,10.57
2022-08-20T21:57:30.033Z,7.65
2022-08-20T21:59:34.443Z,10.38
2022-08-20T22:01:38.413Z,8.10
2022-08-20T22:03:41.123Z,8.40
2022-08-20T22:05:44.282Z,7.90
2022-08-20T22:07:46.637Z,8.27
2022-08-20T22:09:48.807Z,9.85
2022-08-20T22:11:54.660Z,9.35
2022-08-20T22:13:58.072Z,6.47
2022-08-20T22:16:06.351Z,10.38
2022-08-20T22:18:11.883Z,9.50
2022-08-20T22:20:14.293Z,10.90
2022-08-20T22:22:17.631Z,8.32
2022-08-20T22:24:20.057Z,18.75
2022-08-20T22:26:22.636Z,11.27
2022-08-20T22:28:29.853Z,7.68
2022-08-20T22:30:32.578Z,12.98
2022-08-20T22:32:50.458Z,8.85
2022-08-20T22:34:54.437Z,12.38
2022-08-20T22:36:58.441Z,11.98
2022-08-20T22:39:00.819Z,7.28
2022-08-20T22:41:08.986Z,12.02
2022-08-20T22:43:13.266Z,10.77
2022-08-20T22:45:15.875Z,8.52
2022-08-20T22:47:24.841Z,10.65
2022-08-20T22:49:31.029Z,9.27
2022-08-20T22:51:36.753Z,9.30
2022-08-20T22:53:48.649Z,9.60
2022-08-20T22:55:52.023Z,15.52
2022-08-20T22:57:54.978Z,8.80
2022-08-20T22:59:59.697Z,11.85
2022-08-20T23:02:08.345Z,7.65
2022-08-20T23:04:17.507Z,8.73
2022-08-20T23:06:20.400Z,7.60
2022-08-20T23:08:23.109Z,6.80
2022-08-20T23:10:32.037Z,11.88
2022-08-20T23:12:34.289Z,15.88
2022-08-20T23:14:37.674Z,6.65
2022-08-20T23:16:46.783Z,9.98
2022-08-20T23:18:49.128Z,8.60
2022-08-20T23:20:56.378Z,10.48
2022-08-20T23:23:00.531Z,10.07
2022-08-20T23:25:06.065Z,10.77
2022-08-20T23:27:12.536Z,10.98
2022-08-20T23:29:22.206Z,10.15
2022-08-20T23:31:27.419Z,10.48
2022-08-20T23:33:31.757Z,9.68
2022-08-20T23:35:34.165Z,8.63
2022-08-20T23:37:42.347Z,13.50
2022-08-20T23:39:46.531Z,17.58
2022-08-20T23:41:48.777Z,8.50
2022-08-20T23:43:51.443Z,11.30
2022-08-20T23:46:04.468Z,8.52
2022-08-20T23:48:07.234Z,9.85
2022-08-20T23:50:13.371Z,9.85
2022-08-20T23:52:15.553Z,9.45
2022-08-20T23:54:18.136Z,9.48
2022-08-20T23:56:20.307Z,5.43
2022-08-20T23:58:23.059Z,9.45
